Time;durP1;ratioP1;P1;durP2;ratioP2;P2;SDS_P1;SDS_P2;PMS_P1;PMS_P2;Temp;Humidity;BMP_temperature;BMP_pressure;BME280_temperature;BME280_humidity;BME280_pressure;Samples;Min_cycle;Max_cycle;Signal;HPM_P1;HPM_P2
2021/06/24 00:00:48;;;;;;;;;11.50;10.00;;;;;16.65;61.05;101698.78;5057887;28;45589;-72
2021/06/24 00:03:14;;;;;;;;;11.75;11.00;;;;;16.65;61.30;101698.78;5057455;28;45480;-71
2021/06/24 00:05:41;;;;;;;;;14.75;11.00;;;;;16.66;61.17;101703.13;5057253;28;46040;-73
2021/06/24 00:08:08;;;;;;;;;10.50;8.75;;;;;16.66;61.12;101700.50;5057382;28;45444;-72
2021/06/24 00:10:35;;;;;;;;;11.25;9.75;;;;;16.68;61.39;101703.97;5057655;28;45466;-72
2021/06/24 00:13:01;;;;;;;;;10.50;9.00;;;;;16.69;60.78;101703.06;5057652;28;45471;-71
2021/06/24 00:15:26;;;;;;;;;7.50;7.50;;;;;16.70;61.17;101702.16;5056302;28;47095;-73
2021/06/24 00:17:52;;;;;;;;;9.00;9.00;;;;;16.72;61.10;101709.13;5057344;28;45473;-71
2021/06/24 00:20:17;;;;;;;;;8.75;8.75;;;;;16.75;61.12;101708.16;5057299;28;45401;-72
2021/06/24 00:22:43;;;;;;;;;9.00;9.00;;;;;16.76;61.20;101702.84;5073237;28;47387;-71
2021/06/24 00:25:09;;;;;;;;;9.50;8.50;;;;;16.76;60.98;101705.47;5057555;28;46529;-71
2021/06/24 00:27:34;;;;;;;;;12.00;10.25;;;;;16.75;60.96;101708.16;5057195;28;45386;-71
2021/06/24 00:30:00;;;;;;;;;7.75;7.75;;;;;16.75;61.01;101705.50;5057913;28;45300;-72
2021/06/24 00:32:25;;;;;;;;;7.00;6.25;;;;;16.76;61.02;101705.47;5072575;28;45551;-71
2021/06/24 00:34:50;;;;;;;;;12.75;10.50;;;;;16.77;61.07;101703.69;5057154;28;46890;-72
2021/06/24 00:37:16;;;;;;;;;9.50;5.25;;;;;16.79;60.89;101703.69;5057077;28;45519;-73
2021/06/24 00:39:41;;;;;;;;;9.50;9.50;;;;;16.76;60.94;101710.75;5057413;28;45545;-72
2021/06/24 00:42:07;;;;;;;;;12.00;10.75;;;;;16.73;61.17;101700.28;5058053;28;45255;-73
2021/06/24 00:44:33;;;;;;;;;10.25;9.00;;;;;16.76;61.04;101696.69;5057285;28;45435;-72
2021/06/24 00:46:58;;;;;;;;;9.25;6.75;;;;;16.76;61.21;101691.41;5056705;28;45338;-72
2021/06/24 00:49:23;;;;;;;;;6.25;6.25;;;;;16.72;61.37;101697.69;5057139;28;45439;-72
2021/06/24 00:51:49;;;;;;;;;6.00;6.00;;;;;16.68;61.21;101701.31;5057249;28;45580;-72
2021/06/24 00:54:14;;;;;;;;;9.50;6.75;;;;;16.68;61.43;101696.88;5057203;28;46269;-71
2021/06/24 00:56:40;;;;;;;;;13.25;9.50;;;;;16.70;61.08;101696.84;5057338;28;45324;-72
2021/06/24 00:59:05;;;;;;;;;8.75;8.75;;;;;16.70;61.44;101691.56;5056976;28;45813;-72
2021/06/24 01:01:32;;;;;;;;;8.25;8.25;;;;;16.70;61.46;101689.78;5056343;28;45201;-72
2021/06/24 01:03:59;;;;;;;;;8.25;8.25;;;;;16.71;61.12;101691.53;5056690;28;46275;-72
2021/06/24 01:06:24;;;;;;;;;9.00;6.75;;;;;16.71;61.11;101683.59;5056672;28;45323;-72
2021/06/24 01:08:50;;;;;;;;;5.00;5.00;;;;;16.72;61.27;101689.75;5057588;28;45425;-71
2021/06/24 01:11:15;;;;;;;;;11.00;9.00;;;;;16.73;61.43;101681.78;5056690;28;45547;-72
2021/06/24 01:13:44;;;;;;;;;8.50;8.50;;;;;16.75;61.42;101687.84;5056712;28;46036;-72
2021/06/24 01:16:09;;;;;;;;;10.25;10.00;;;;;16.77;61.45;101686.03;5056025;28;45343;-72
2021/06/24 01:18:35;;;;;;;;;12.50;8.00;;;;;16.77;61.48;101675.47;5056571;28;45366;-72
2021/06/24 01:21:03;;;;;;;;;8.00;8.00;;;;;16.77;61.52;101691.31;5056947;28;45363;-72
2021/06/24 01:23:30;;;;;;;;;9.00;5.50;;;;;16.75;61.39;101684.34;5056351;28;47373;-71
2021/06/24 01:25:55;;;;;;;;;12.50;11.25;;;;;16.75;61.49;101685.22;5056158;28;45505;-71
2021/06/24 01:28:20;;;;;;;;;6.50;6.50;;;;;16.74;61.40;101677.34;5056422;28;45406;-72
2021/06/24 01:30:46;;;;;;;;;10.75;9.00;;;;;16.75;61.22;101676.44;5056197;28;45475;-71
2021/06/24 01:33:12;;;;;;;;;9.25;9.00;;;;;16.72;61.26;101676.53;5056625;28;45334;-71
2021/06/24 01:35:38;;;;;;;;;8.00;8.00;;;;;16.67;61.15;101665.22;5056628;28;45493;-71
2021/06/24 01:38:08;;;;;;;;;6.00;5.75;;;;;16.65;61.25;101662.63;5056437;28;49268;-73
2021/06/24 01:40:35;;;;;;;;;9.00;9.00;;;;;16.66;61.24;101663.47;5056169;28;45373;-71
2021/06/24 01:43:01;;;;;;;;;10.50;10.50;;;;;16.67;61.20;101659.94;5056328;28;45786;-72
2021/06/24 01:45:26;;;;;;;;;9.50;9.00;;;;;16.64;61.04;101665.34;5056081;28;45323;-71
2021/06/24 01:47:52;;;;;;;;;9.50;9.50;;;;;16.64;60.94;101666.19;5056826;28;45367;-72
2021/06/24 01:50:18;;;;;;;;;9.50;9.50;;;;;16.63;61.04;101658.31;5056014;28;45405;-72
2021/06/24 01:52:45;;;;;;;;;9.50;7.25;;;;;16.62;61.04;101668.00;5055857;28;47112;-73
2021/06/24 01:55:13;;;;;;;;;10.00;9.75;;;;;16.61;61.21;101663.63;5056311;28;45374;-72
2021/06/24 01:57:39;;;;;;;;;8.25;6.25;;;;;16.59;61.03;101656.66;5040367;28;45446;-73
2021/06/24 02:00:13;;;;;;;;;12.00;9.00;;;;;16.59;61.27;101654.91;5056385;28;45577;-72
2021/06/24 02:02:43;;;;;;;;;10.50;9.25;;;;;16.55;60.98;101646.19;5055883;28;46543;-72
2021/06/24 02:05:09;;;;;;;;;7.50;5.75;;;;;16.56;61.00;101652.31;5055954;28;45493;-72
2021/06/24 02:07:39;;;;;;;;;6.00;6.00;;;;;16.53;61.04;101645.38;5055933;28;45368;-72
2021/06/24 02:10:05;;;;;;;;;8.75;8.75;;;;;16.53;61.18;101639.22;5055934;28;45518;-72
2021/06/24 02:12:31;;;;;;;;;8.50;8.50;;;;;16.54;61.01;101640.94;5055380;28;47224;-73
2021/06/24 02:14:56;;;;;;;;;6.50;6.50;;;;;16.55;61.03;101637.41;5055215;28;45324;-73
2021/06/24 02:17:22;;;;;;;;;11.50;9.25;;;;;16.54;61.05;101636.53;5055766;28;45319;-71
2021/06/24 02:19:47;;;;;;;;;9.50;9.50;;;;;16.54;61.12;101636.53;5055804;28;45319;-72
2021/06/24 02:22:12;;;;;;;;;9.25;7.50;;;;;16.57;61.09;101638.22;5055179;28;46918;-71
2021/06/24 02:24:38;;;;;;;;;9.75;9.00;;;;;16.59;61.13;101631.09;5055748;28;45307;-71
2021/06/24 02:27:04;;;;;;;;;6.25;6.25;;;;;16.60;61.02;101627.53;5056418;28;45401;-71
2021/06/24 02:29:29;;;;;;;;;9.50;8.75;;;;;16.62;61.00;101624.88;5070517;28;45274;-72
2021/06/24 02:31:54;;;;;;;;;9.25;9.00;;;;;16.62;60.69;101619.56;5055282;28;46149;-71
2021/06/24 02:34:20;;;;;;;;;7.25;6.25;;;;;16.64;60.54;101620.41;5055389;28;45213;-73
2021/06/24 02:36:45;;;;;;;;;5.25;4.00;;;;;16.64;60.89;101625.69;5055600;28;45255;-72
2021/06/24 02:39:11;;;;;;;;;9.25;7.00;;;;;16.62;60.70;101620.44;5055868;28;45220;-71
2021/06/24 02:41:36;;;;;;;;;12.00;9.75;;;;;16.61;60.59;101616.03;5055468;28;46093;-72
2021/06/24 02:44:03;;;;;;;;;6.75;6.75;;;;;16.61;60.68;101617.81;5054878;28;47818;-71
2021/06/24 02:46:28;;;;;;;;;10.00;9.00;;;;;16.58;60.54;101613.50;5055444;28;45316;-72
2021/06/24 02:48:54;;;;;;;;;8.25;6.75;;;;;16.63;60.36;101614.22;5069393;28;45568;-71
2021/06/24 02:51:19;;;;;;;;;6.50;6.50;;;;;16.63;60.51;101621.28;5055002;28;46084;-72
2021/06/24 02:53:44;;;;;;;;;7.50;6.00;;;;;16.61;60.43;101620.47;5055197;28;45362;-72
2021/06/24 02:56:10;;;;;;;;;11.25;6.75;;;;;16.58;60.33;101621.44;5054937;28;45318;-72
2021/06/24 02:58:35;;;;;;;;;10.00;6.75;;;;;16.54;60.53;101622.44;5054620;28;45557;-71
2021/06/24 03:01:01;;;;;;;;;8.75;5.50;;;;;16.52;60.80;101621.63;5054750;28;46848;-74
2021/06/24 03:03:26;;;;;;;;;7.25;6.00;;;;;16.49;60.54;101619.97;5054823;28;45451;-73
2021/06/24 03:05:51;;;;;;;;;8.50;7.00;;;;;16.49;60.64;101621.72;5055639;28;45457;-72
2021/06/24 03:08:17;;;;;;;;;9.50;7.75;;;;;16.49;60.83;101627.88;5054648;28;45497;-72
2021/06/24 03:10:42;;;;;;;;;10.50;9.25;;;;;16.49;60.76;101621.72;5054559;28;45666;-72
2021/06/24 03:13:07;;;;;;;;;10.00;7.75;;;;;16.48;60.61;101620.00;5054667;28;45442;-72
2021/06/24 03:15:36;;;;;;;;;8.25;7.75;;;;;16.51;60.86;101625.19;5054794;28;45452;-71
2021/06/24 03:18:01;;;;;;;;;9.50;9.50;;;;;16.51;60.88;101622.53;5055067;28;45438;-71
2021/06/24 03:20:28;;;;;;;;;6.75;5.50;;;;;16.51;60.79;101627.81;5054303;28;45502;-71
2021/06/24 03:23:00;;;;;;;;;8.00;7.25;;;;;16.51;60.49;101619.88;5054426;28;45368;-73
2021/06/24 03:25:26;;;;;;;;;7.00;7.00;;;;;16.48;60.32;101622.63;5052543;28;45229;-71
2021/06/24 03:27:53;;;;;;;;;6.00;5.00;;;;;16.48;60.34;101630.56;5054552;28;45399;-71
2021/06/24 03:30:19;;;;;;;;;8.00;6.25;;;;;16.48;60.31;101626.13;5054813;28;45548;-72
2021/06/24 03:32:45;;;;;;;;;8.75;7.75;;;;;16.51;60.77;101628.69;5055041;28;45426;-72
2021/06/24 03:35:11;;;;;;;;;9.50;8.25;;;;;16.53;60.34;101618.94;5054259;28;45478;-72
2021/06/24 03:37:36;;;;;;;;;6.00;6.00;;;;;16.53;60.62;101624.22;5054593;28;45577;-73
2021/06/24 03:40:08;;;;;;;;;6.50;6.50;;;;;16.53;60.44;101626.00;5052383;28;45742;-73
2021/06/24 03:42:34;;;;;;;;;6.75;6.75;;;;;16.51;60.44;101620.75;5054227;28;45378;-72
2021/06/24 03:44:59;;;;;;;;;11.50;10.00;;;;;16.51;60.37;101617.25;5054556;28;45624;-72
2021/06/24 03:47:25;;;;;;;;;6.25;6.25;;;;;16.51;60.14;101620.75;5053820;28;45370;-72
2021/06/24 03:49:50;;;;;;;;;10.00;8.75;;;;;16.51;60.19;101620.75;5053861;28;46090;-73
2021/06/24 03:52:15;;;;;;;;;9.75;8.25;;;;;16.52;60.22;101619.00;5053849;28;45280;-72
2021/06/24 03:54:41;;;;;;;;;7.00;6.00;;;;;16.51;60.24;101617.25;5069559;28;45432;-72
2021/06/24 03:57:07;;;;;;;;;8.25;7.50;;;;;16.49;60.19;101621.72;5055044;28;45503;-73
2021/06/24 03:59:32;;;;;;;;;9.00;9.00;;;;;16.47;59.88;101623.53;5053653;28;46005;-73
2021/06/24 04:01:57;;;;;;;;;8.00;6.25;;;;;16.46;59.92;101619.16;5053914;28;45461;-72
2021/06/24 04:04:23;;;;;;;;;7.50;6.50;;;;;16.47;60.08;101626.19;5053855;28;45618;-72
2021/06/24 04:06:48;;;;;;;;;8.00;8.00;;;;;16.49;60.44;101621.72;5053908;28;45489;-71
2021/06/24 04:09:14;;;;;;;;;6.75;6.75;;;;;16.49;59.94;101619.97;5053709;28;49786;-73
2021/06/24 04:11:40;;;;;;;;;8.00;7.00;;;;;16.50;59.86;101618.19;5053870;28;45331;-72
2021/06/24 04:14:06;;;;;;;;;12.25;11.00;;;;;16.51;59.74;101625.19;5053533;28;45224;-72
2021/06/24 04:16:31;;;;;;;;;11.50;11.00;;;;;16.51;59.97;101633.09;5052907;28;45241;-72
2021/06/24 04:18:56;;;;;;;;;9.50;9.50;;;;;16.48;59.75;101620.84;5053291;28;46223;-72
2021/06/24 04:21:22;;;;;;;;;11.50;11.00;;;;;16.47;59.79;101626.19;5053199;28;45423;-72
2021/06/24 04:23:47;;;;;;;;;9.75;8.00;;;;;16.41;59.87;101627.25;5053571;28;45433;-73
2021/06/24 04:26:13;;;;;;;;;11.00;8.75;;;;;16.38;59.96;101629.13;5053093;28;45391;-73
2021/06/24 04:28:38;;;;;;;;;11.25;10.75;;;;;16.35;60.30;101625.66;5052690;28;47106;-72
2021/06/24 04:31:04;;;;;;;;;8.25;8.25;;;;;16.37;60.58;101627.38;5052675;28;45355;-72
2021/06/24 04:33:29;;;;;;;;;10.25;9.25;;;;;16.37;60.20;101625.59;5053317;28;45510;-72
2021/06/24 04:35:54;;;;;;;;;11.25;9.50;;;;;16.40;60.25;101638.75;5053388;28;45362;-72
2021/06/24 04:38:20;;;;;;;;;11.00;11.00;;;;;16.40;60.32;101633.44;5055692;28;46037;-73
2021/06/24 04:40:45;;;;;;;;;12.25;11.00;;;;;16.43;60.22;101633.34;5055177;28;45426;-72
2021/06/24 04:43:11;;;;;;;;;7.25;7.25;;;;;16.45;60.35;101646.53;5056416;28;45336;-72
2021/06/24 04:45:36;;;;;;;;;10.75;9.00;;;;;16.45;60.39;101639.47;5056056;28;45508;-72
2021/06/24 04:48:02;;;;;;;;;7.75;7.00;;;;;16.44;60.47;101636.84;5056414;28;46858;-71
2021/06/24 04:50:27;;;;;;;;;11.00;9.25;;;;;16.45;60.59;101646.53;5055999;28;45323;-73
2021/06/24 04:52:53;;;;;;;;;7.00;7.00;;;;;16.42;60.24;101636.91;5055794;28;45343;-72
2021/06/24 04:55:18;;;;;;;;;12.25;12.25;;;;;16.45;60.06;101642.09;5055925;28;45482;-74
2021/06/24 04:57:43;;;;;;;;;13.50;10.00;;;;;16.48;60.11;101647.28;5055499;28;46037;-73
2021/06/24 05:00:09;;;;;;;;;9.00;8.00;;;;;16.49;60.06;101651.69;5056485;28;45430;-74
2021/06/24 05:02:35;;;;;;;;;9.00;7.50;;;;;16.48;59.91;101649.94;5055730;28;45381;-73
2021/06/24 05:05:02;;;;;;;;;7.50;6.50;;;;;16.44;59.62;101643.00;5055040;28;45556;-74
2021/06/24 05:07:27;;;;;;;;;10.00;9.00;;;;;16.42;59.80;101644.84;5054713;28;46316;-74
2021/06/24 05:09:53;;;;;;;;;10.75;10.75;;;;;16.47;60.21;101649.97;5054797;28;45303;-74
2021/06/24 05:12:18;;;;;;;;;8.75;8.75;;;;;16.48;59.79;101644.63;5055673;28;45469;-73
2021/06/24 05:14:43;;;;;;;;;10.00;10.00;;;;;16.50;60.16;101647.25;5055654;28;45493;-73
2021/06/24 05:17:14;;;;;;;;;16.50;15.50;;;;;16.52;60.21;101654.22;5054759;28;45374;-73
2021/06/24 05:19:41;;;;;;;;;9.50;8.25;;;;;16.54;59.93;101652.41;5054858;28;45345;-73
2021/06/24 05:22:07;;;;;;;;;8.00;8.00;;;;;16.50;59.80;101644.59;5054576;28;45515;-73
2021/06/24 05:24:33;;;;;;;;;14.00;14.00;;;;;16.55;59.86;101647.97;5055525;28;45594;-73
2021/06/24 05:26:59;;;;;;;;;8.75;7.00;;;;;16.58;59.93;101644.38;5056239;28;47139;-74
2021/06/24 05:29:24;;;;;;;;;10.25;10.25;;;;;16.58;59.67;101650.50;5054628;28;45334;-75
2021/06/24 05:31:49;;;;;;;;;14.50;12.25;;;;;16.53;59.85;101642.72;5053390;28;45368;-74
2021/06/24 05:34:15;;;;;;;;;15.00;12.00;;;;;16.59;59.75;101646.06;5054901;28;45462;-74
2021/06/24 05:36:41;;;;;;;;;12.75;12.75;;;;;16.60;59.74;101640.75;5054173;28;45350;-74
2021/06/24 05:39:06;;;;;;;;;14.50;12.75;;;;;16.65;59.50;101636.19;5055330;28;45377;-73
2021/06/24 05:41:32;;;;;;;;;9.25;8.75;;;;;16.65;59.42;101638.84;5054478;28;45677;-73
2021/06/24 05:43:57;;;;;;;;;11.00;9.25;;;;;16.69;59.28;101637.84;5054889;28;45346;-74
2021/06/24 05:46:23;;;;;;;;;11.50;11.50;;;;;16.70;59.40;101642.19;5054860;28;45483;-74
2021/06/24 05:48:51;;;;;;;;;10.25;9.25;;;;;16.70;59.25;101636.06;5053425;28;45440;-74
2021/06/24 05:51:18;;;;;;;;;11.00;7.25;;;;;16.73;59.08;101647.41;5054554;28;45434;-74
2021/06/24 05:53:43;;;;;;;;;15.50;11.75;;;;;16.73;58.97;101638.59;5054793;28;45571;-73
2021/06/24 05:56:08;;;;;;;;;15.75;13.25;;;;;16.75;59.02;101645.56;5053880;28;46101;-74
2021/06/24 05:58:34;;;;;;;;;14.75;11.75;;;;;16.79;58.82;101651.66;5054961;28;45531;-76
2021/06/24 06:00:59;;;;;;;;;13.00;12.00;;;;;16.80;58.94;101652.53;5054202;28;45457;-73
2021/06/24 06:03:26;;;;;;;;;12.00;12.00;;;;;16.83;59.00;101655.06;5053811;28;45409;-73
2021/06/24 06:05:53;;;;;;;;;10.00;10.00;;;;;16.82;58.82;101651.56;5053845;28;46940;-73
2021/06/24 06:08:19;;;;;;;;;9.50;7.00;;;;;16.83;58.63;101652.41;5053943;28;45519;-74
2021/06/24 06:10:44;;;;;;;;;11.25;9.50;;;;;16.83;58.46;101660.34;5053576;28;45267;-75
2021/06/24 06:13:11;;;;;;;;;9.75;9.75;;;;;16.85;58.83;101664.69;5052591;28;45578;-73
2021/06/24 06:15:39;;;;;;;;;13.00;11.00;;;;;16.85;58.58;101663.81;5053551;28;45848;-74
2021/06/24 06:18:17;;;;;;;;;10.75;9.75;;;;;16.87;58.83;101660.19;5053732;28;45519;-74
2021/06/24 06:20:44;;;;;;;;;14.50;10.25;;;;;16.88;58.89;101659.31;5052547;28;45445;-75
2021/06/24 06:23:10;;;;;;;;;13.75;13.00;;;;;16.93;58.57;101662.66;5069208;28;46216;-74
2021/06/24 06:25:36;;;;;;;;;15.50;13.75;;;;;16.98;58.55;101663.38;5052934;28;46103;-74
2021/06/24 06:28:01;;;;;;;;;12.00;9.50;;;;;16.98;58.07;101671.31;5053895;28;45349;-74
2021/06/24 06:30:27;;;;;;;;;15.25;14.75;;;;;16.98;58.18;101671.31;5053828;28;45309;-74
2021/06/24 06:32:53;;;;;;;;;10.50;8.00;;;;;17.02;58.05;101672.09;5054316;28;45424;-73
2021/06/24 06:35:19;;;;;;;;;17.25;12.75;;;;;17.06;58.07;101672.84;5052126;28;45493;-75
2021/06/24 06:37:44;;;;;;;;;10.75;9.75;;;;;17.10;57.99;101672.69;5068209;28;45530;-73
2021/06/24 06:40:12;;;;;;;;;10.00;10.00;;;;;17.11;57.65;101668.25;5053128;28;45776;-74
2021/06/24 06:42:37;;;;;;;;;16.50;13.75;;;;;17.10;57.80;101677.13;5053230;28;45579;-74
2021/06/24 06:45:03;;;;;;;;;16.25;12.50;;;;;17.04;57.68;101669.38;5053498;28;45301;-73
2021/06/24 06:47:28;;;;;;;;;12.75;10.50;;;;;17.00;57.72;101671.28;5052841;28;45353;-75
2021/06/24 06:49:54;;;;;;;;;17.75;15.00;;;;;16.94;57.85;101672.31;5052855;28;45371;-73
2021/06/24 06:52:19;;;;;;;;;13.75;10.75;;;;;16.93;57.76;101677.69;5053224;28;45508;-73
2021/06/24 06:54:44;;;;;;;;;15.00;12.25;;;;;16.89;57.85;101678.69;5052811;28;46128;-71
2021/06/24 06:57:10;;;;;;;;;13.50;13.00;;;;;16.88;58.01;101684.91;5053516;28;45422;-72
2021/06/24 06:59:35;;;;;;;;;10.25;10.25;;;;;16.91;58.06;101682.13;5053313;28;45526;-73
2021/06/24 07:02:01;;;;;;;;;15.75;12.00;;;;;16.90;57.90;101680.38;5053001;28;45528;-73
2021/06/24 07:04:26;;;;;;;;;12.50;11.50;;;;;16.90;58.13;101689.22;5052506;28;45414;-73
2021/06/24 07:06:52;;;;;;;;;21.00;16.50;;;;;16.93;57.99;101682.97;5053737;28;45355;-73
2021/06/24 07:09:18;;;;;;;;;12.50;11.00;;;;;16.94;57.74;101685.53;5053002;28;45485;-74
2021/06/24 07:11:43;;;;;;;;;15.00;12.50;;;;;16.95;58.01;101687.28;5053521;28;45506;-73
2021/06/24 07:14:09;;;;;;;;;12.00;11.00;;;;;16.95;57.95;101687.28;5068433;28;47275;-72
2021/06/24 07:16:34;;;;;;;;;11.00;11.00;;;;;16.95;57.85;101686.44;5053102;28;45475;-72
2021/06/24 07:18:59;;;;;;;;;20.25;16.75;;;;;16.95;57.91;101692.56;5052628;28;45577;-72
2021/06/24 07:21:25;;;;;;;;;18.00;15.25;;;;;16.96;58.16;101689.00;5052907;28;45668;-73
2021/06/24 07:23:50;;;;;;;;;16.25;12.75;;;;;16.98;58.03;101684.53;5053066;28;47286;-72
2021/06/24 07:26:16;;;;;;;;;17.00;15.00;;;;;17.01;57.92;101682.72;5052340;28;45417;-71
2021/06/24 07:28:41;;;;;;;;;12.00;11.00;;;;;17.03;58.00;101679.09;5051973;28;45385;-73
2021/06/24 07:31:06;;;;;;;;;27.25;22.00;;;;;17.09;57.91;101681.56;5052856;28;45468;-73
2021/06/24 07:33:34;;;;;;;;;18.75;14.50;;;;;17.13;57.90;101684.97;5052740;28;45422;-73
2021/06/24 07:35:59;;;;;;;;;21.50;17.25;;;;;17.19;57.69;101688.28;5053730;28;45268;-72
2021/06/24 07:38:25;;;;;;;;;40.25;34.00;;;;;17.25;57.62;101687.19;5052848;28;45334;-73
2021/06/24 07:40:50;;;;;;;;;22.75;17.50;;;;;17.29;57.46;101688.84;5052273;28;45545;-74
2021/06/24 07:43:15;;;;;;;;;36.50;21.75;;;;;17.30;57.38;101687.91;5052123;28;46038;-74
2021/06/24 07:45:41;;;;;;;;;13.00;13.00;;;;;17.36;57.35;101685.06;5052782;28;45265;-73
2021/06/24 07:48:06;;;;;;;;;24.25;21.75;;;;;17.41;57.13;101690.22;5053432;28;45374;-74
2021/06/24 07:50:33;;;;;;;;;14.00;13.00;;;;;17.50;57.09;101692.56;5052644;28;45627;-74
2021/06/24 07:52:58;;;;;;;;;23.75;16.75;;;;;17.55;56.91;101695.91;5052240;28;47149;-74
2021/06/24 07:55:32;;;;;;;;;18.75;17.00;;;;;17.59;56.83;101689.59;5051671;28;45662;-74
2021/06/24 07:57:58;;;;;;;;;12.50;12.50;;;;;17.68;56.65;101690.19;5052502;28;45328;-73
2021/06/24 08:00:23;;;;;;;;;12.00;9.50;;;;;17.77;56.17;101690.72;5052873;28;45336;-74
2021/06/24 08:02:49;;;;;;;;;22.25;16.00;;;;;17.76;56.35;101693.44;5050625;28;46002;-74
2021/06/24 08:05:14;;;;;;;;;13.00;11.25;;;;;17.81;56.30;101692.38;5050152;28;46048;-73
2021/06/24 08:07:44;;;;;;;;;17.50;15.50;;;;;17.91;56.02;101689.41;5052498;28;45737;-74
2021/06/24 08:10:10;;;;;;;;;11.00;10.00;;;;;17.97;55.93;101684.78;5052495;28;45543;-74
2021/06/24 08:12:35;;;;;;;;;13.00;8.25;;;;;18.04;55.77;101690.69;5054979;28;46343;-71
2021/06/24 08:15:01;;;;;;;;;10.00;9.00;;;;;18.16;55.58;101692.03;5057450;28;45346;-73
2021/06/24 08:17:26;;;;;;;;;14.75;12.00;;;;;18.30;55.33;101687.09;5056428;28;45312;-73
2021/06/24 08:19:51;;;;;;;;;11.50;10.75;;;;;18.44;54.96;101686.56;5056110;28;45576;-69
2021/06/24 08:22:17;;;;;;;;;11.75;10.00;;;;;18.58;54.66;101689.56;5055849;28;45999;-71
2021/06/24 08:24:42;;;;;;;;;12.25;11.00;;;;;18.64;54.04;101686.69;5055821;28;45584;-72
2021/06/24 08:27:07;;;;;;;;;11.50;11.50;;;;;18.69;54.22;101691.81;5056066;28;45321;-74
2021/06/24 08:29:33;;;;;;;;;11.50;9.50;;;;;18.82;53.90;101697.50;5055574;28;45385;-74
2021/06/24 08:32:00;;;;;;;;;8.75;8.75;;;;;18.93;53.54;101695.31;5054941;28;45345;-73
2021/06/24 08:34:27;;;;;;;;;17.25;13.25;;;;;19.04;53.36;101703.72;5055601;28;45502;-72
2021/06/24 08:36:52;;;;;;;;;12.25;9.00;;;;;19.12;52.96;101703.41;5055907;28;45472;-73
2021/06/24 08:39:18;;;;;;;;;10.75;10.75;;;;;19.23;53.02;101705.59;5055925;28;45316;-72
2021/06/24 08:41:44;;;;;;;;;16.00;12.25;;;;;19.33;53.09;101699.00;5055490;28;46665;-75
2021/06/24 08:44:09;;;;;;;;;22.50;17.75;;;;;19.50;52.25;101703.59;5055141;28;45468;-73
2021/06/24 08:46:35;;;;;;;;;14.50;13.50;;;;;19.60;51.79;101710.25;5054939;28;45442;-74
2021/06/24 08:49:01;;;;;;;;;10.50;8.75;;;;;19.62;51.80;101705.72;5055447;28;45345;-73
2021/06/24 08:51:27;;;;;;;;;25.25;19.75;;;;;19.68;52.14;101699.31;5055788;28;46006;-73
2021/06/24 08:53:55;;;;;;;;;12.25;8.00;;;;;19.78;51.59;101702.44;5056145;28;45419;-73
2021/06/24 08:56:20;;;;;;;;;13.25;10.25;;;;;19.83;51.75;101703.09;5055712;28;45528;-73
2021/06/24 08:58:47;;;;;;;;;15.50;13.00;;;;;19.87;51.60;101692.28;5070663;28;45490;-74
2021/06/24 09:01:13;;;;;;;;;13.50;10.00;;;;;19.93;51.61;101692.00;5053683;28;48175;-74
2021/06/24 09:03:39;;;;;;;;;10.00;9.00;;;;;20.05;51.21;101701.22;5039426;28;45376;-77
2021/06/24 09:06:07;;;;;;;;;13.75;11.75;;;;;20.14;50.41;101691.97;5056087;28;45418;-73
2021/06/24 09:08:38;;;;;;;;;7.25;7.00;;;;;20.15;50.67;101707.00;5055365;28;45529;-73
2021/06/24 09:11:14;;;;;;;;;8.25;8.00;;;;;20.18;50.67;101708.66;5070296;28;46283;-74
2021/06/24 09:13:41;;;;;;;;;9.75;9.25;;;;;20.25;50.33;101702.13;5054654;28;45411;-73
2021/06/24 09:16:24;;;;;;;;;23.50;20.25;;;;;20.37;50.46;101696.25;5054835;28;45397;-72
2021/06/24 09:18:50;;;;;;;;;9.50;9.50;;;;;20.49;49.92;101701.00;5040208;28;45449;-72
2021/06/24 09:21:23;;;;;;;;;10.25;8.50;;;;;20.60;49.96;101699.69;5055033;28;45501;-72
2021/06/24 09:23:52;;;;;;;;;13.00;11.75;;;;;20.74;49.71;101706.06;5053225;28;45338;-73
2021/06/24 09:26:19;;;;;;;;;15.25;9.25;;;;;20.82;49.21;101702.19;5053491;28;45544;-74
2021/06/24 09:28:51;;;;;;;;;11.50;8.75;;;;;20.88;49.30;101697.44;5054579;28;45456;-73
2021/06/24 09:31:27;;;;;;;;;7.50;7.50;;;;;20.90;49.05;101706.19;5054532;28;47151;-73
2021/06/24 09:33:55;;;;;;;;;9.50;9.50;;;;;20.93;48.32;101703.38;5054521;28;45383;-73
2021/06/24 09:36:34;;;;;;;;;9.25;8.25;;;;;20.97;48.57;101710.31;5054675;28;45344;-73
2021/06/24 09:39:00;;;;;;;;;9.00;8.25;;;;;21.04;48.33;101704.66;5054175;28;45523;-71
2021/06/24 09:41:25;;;;;;;;;11.25;10.50;;;;;21.09;48.10;101700.81;5054029;28;46060;-72
2021/06/24 09:43:51;;;;;;;;;10.75;9.75;;;;;21.11;47.67;101709.59;5053976;28;45457;-72
2021/06/24 09:46:19;;;;;;;;;10.00;9.00;;;;;21.08;47.73;101709.75;5054723;28;45642;-73
2021/06/24 09:48:45;;;;;;;;;9.50;9.00;;;;;21.04;47.10;101718.81;5054357;28;45410;-72
2021/06/24 09:51:16;;;;;;;;;13.00;9.50;;;;;20.93;47.05;101710.53;5054445;28;45396;-73
2021/06/24 09:54:01;;;;;;;;;9.75;8.75;;;;;20.86;47.51;101717.94;5054221;28;45409;-72
2021/06/24 09:56:40;;;;;;;;;9.00;9.00;;;;;20.82;47.56;101720.81;5054066;28;45612;-73
2021/06/24 09:59:07;;;;;;;;;14.50;10.75;;;;;20.79;48.00;101717.34;5054142;28;45572;-73
2021/06/24 10:01:50;;;;;;;;;11.00;10.75;;;;;20.78;48.11;101720.97;5054253;28;46105;-73
2021/06/24 10:04:22;;;;;;;;;10.50;10.50;;;;;20.77;48.06;101729.00;5054219;28;45291;-73
2021/06/24 10:06:53;;;;;;;;;8.75;8.50;;;;;20.76;48.00;101724.59;5054237;28;45414;-74
2021/06/24 10:09:19;;;;;;;;;8.00;8.00;;;;;20.72;48.30;101726.56;5054613;28;45431;-74
2021/06/24 10:11:45;;;;;;;;;7.25;7.25;;;;;20.75;47.62;101728.22;5054060;28;45529;-74
2021/06/24 10:14:12;;;;;;;;;30.25;29.75;;;;;20.77;48.05;101732.53;5054444;28;45455;-74
2021/06/24 10:16:40;;;;;;;;;11.00;10.00;;;;;20.83;47.53;101725.19;5054467;28;45356;-73
2021/06/24 10:19:05;;;;;;;;;12.75;10.75;;;;;20.86;47.52;101728.56;5054505;28;45417;-74
2021/06/24 10:21:34;;;;;;;;;10.50;8.50;;;;;20.98;47.18;101730.66;5053912;28;46031;-73
2021/06/24 10:24:11;;;;;;;;;12.00;11.75;;;;;21.07;46.63;101733.78;5054293;28;45365;-73
2021/06/24 10:26:41;;;;;;;;;12.75;12.00;;;;;21.12;46.98;101732.66;5053597;28;45547;-75
2021/06/24 10:29:09;;;;;;;;;15.50;13.50;;;;;21.19;46.62;101728.75;5053904;28;45476;-72
2021/06/24 10:31:40;;;;;;;;;8.00;8.00;;;;;21.32;46.78;101728.13;5053722;28;45884;-74
2021/06/24 10:34:06;;;;;;;;;10.50;10.25;;;;;21.51;45.94;101728.97;5053698;28;45484;-72
2021/06/24 10:36:32;;;;;;;;;11.00;10.25;;;;;21.71;45.99;101727.09;5054078;28;45505;-74
2021/06/24 10:38:59;;;;;;;;;14.00;13.50;;;;;22.03;46.05;101720.09;5054830;28;45313;-73
2021/06/24 10:41:25;;;;;;;;;10.25;10.25;;;;;22.33;44.54;101722.94;5053232;28;46657;-75
2021/06/24 10:43:54;;;;;;;;;11.25;11.25;;;;;22.58;44.43;101722.47;5053900;28;45449;-74
2021/06/24 10:46:25;;;;;;;;;14.50;12.50;;;;;22.91;44.03;101726.91;5053370;28;45586;-73
2021/06/24 10:48:50;;;;;;;;;10.00;9.00;;;;;23.10;42.77;101732.94;5053743;28;45283;-74
2021/06/24 10:51:16;;;;;;;;;12.25;10.25;;;;;23.37;42.44;101728.75;5053828;28;46803;-73
2021/06/24 10:53:49;;;;;;;;;9.50;8.50;;;;;23.59;42.99;101726.53;5053773;28;45255;-73
2021/06/24 10:56:29;;;;;;;;;14.25;12.50;;;;;23.94;41.20;101711.09;5053590;28;45373;-71
2021/06/24 10:58:56;;;;;;;;;8.00;8.00;;;;;24.17;41.26;101715.03;5053964;28;45357;-73
2021/06/24 11:01:42;;;;;;;;;13.75;11.50;;;;;24.46;40.59;101709.69;5053459;28;45512;-71
2021/06/24 11:04:24;;;;;;;;;8.00;8.00;;;;;24.72;39.86;101712.53;5053127;28;45323;-72
2021/06/24 11:06:51;;;;;;;;;11.00;11.00;;;;;25.03;39.77;101703.34;5038513;28;45321;-74
2021/06/24 11:09:18;;;;;;;;;9.75;8.50;;;;;25.43;39.24;101703.38;5052458;28;45532;-74
2021/06/24 11:11:44;;;;;;;;;11.00;10.00;;;;;25.76;36.83;101704.72;5052953;28;46213;-72
2021/06/24 11:14:16;;;;;;;;;9.50;9.50;;;;;25.85;37.77;101702.25;5053510;28;45312;-73